createdAt,value
2019-01-13T00:02:36.676Z,99218.23
2019-01-13T00:07:40.155Z,99225.02
2019-01-13T00:12:43.638Z,99207.98
2019-01-13T00:17:47.115Z,99209.10
2019-01-13T00:22:50.598Z,99198.45
2019-01-13T00:27:54.070Z,99203.22
2019-01-13T00:32:57.565Z,99203.69
2019-01-13T00:38:01.043Z,99197.97
2019-01-13T00:43:04.972Z,99198.58
2019-01-13T00:48:08.447Z,99188.53
2019-01-13T00:53:11.930Z,99192.70
2019-01-13T00:58:15.407Z,99193.30
2019-01-13T01:03:19.055Z,99195.73
2019-01-13T01:08:22.704Z,99196.52
2019-01-13T01:13:26.197Z,99179.74
2019-01-13T01:18:29.679Z,99181.59
2019-01-13T01:23:34.712Z,99181.59
2019-01-13T01:28:38.180Z,99188.50
2019-01-13T01:33:41.642Z,99184.95
2019-01-13T01:38:45.101Z,99181.37
2019-01-13T01:43:48.565Z,99179.20
2019-01-13T01:48:52.025Z,99179.64
2019-01-13T01:53:55.492Z,99172.11
2019-01-13T01:58:58.971Z,99168.01
2019-01-13T02:04:02.473Z,99168.01
2019-01-13T02:09:07.695Z,99183.02
2019-01-13T02:14:11.164Z,99174.70
2019-01-13T02:19:14.625Z,99179.47
2019-01-13T02:24:18.085Z,99185.80
2019-01-13T02:29:21.552Z,99184.09
2019-01-13T02:34:25.025Z,99176.53
2019-01-13T02:39:28.488Z,99180.69
2019-01-13T02:44:31.946Z,99175.92
2019-01-13T02:49:35.425Z,99174.54
2019-01-13T02:54:38.893Z,99170.24
2019-01-13T02:59:42.358Z,99166.09
2019-01-13T03:04:45.823Z,99172.23
2019-01-13T03:09:49.282Z,99174.06
2019-01-13T03:14:52.742Z,99180.98
2019-01-13T03:19:56.211Z,99177.00
2019-01-13T03:24:59.670Z,99168.69
2019-01-13T03:30:04.782Z,99163.41
2019-01-13T03:35:08.790Z,99162.36
2019-01-13T03:40:15.403Z,99156.05
2019-01-13T03:45:19.102Z,99150.33
2019-01-13T03:50:23.637Z,99149.72
2019-01-13T03:55:27.080Z,99156.05
2019-01-13T04:00:30.539Z,99156.99
2019-01-13T04:05:33.998Z,99154.83
2019-01-13T04:10:37.484Z,99154.05
2019-01-13T04:15:42.471Z,99142.19
2019-01-13T04:20:45.940Z,99132.48
2019-01-13T04:25:49.408Z,99132.48
2019-01-13T04:30:52.871Z,99128.16
2019-01-13T04:35:56.409Z,99129.38
2019-01-13T04:40:59.871Z,99128.77
2019-01-13T04:46:03.582Z,99127.99
2019-01-13T04:51:07.041Z,99118.30
2019-01-13T04:56:10.505Z,99110.76
2019-01-13T05:01:13.972Z,99109.37
2019-01-13T05:06:17.483Z,99105.21
2019-01-13T05:11:20.950Z,99109.37
2019-01-13T05:16:24.411Z,99107.20
2019-01-13T05:21:27.879Z,99105.82
2019-01-13T05:26:31.337Z,99100.11
2019-01-13T05:31:41.762Z,99091.02
2019-01-13T05:36:39.990Z,99093.02
2019-01-13T05:41:43.451Z,99085.31
2019-01-13T05:46:46.917Z,99085.31
2019-01-13T05:51:51.198Z,99082.70
2019-01-13T05:56:54.663Z,99075.17
2019-01-13T06:01:58.132Z,99071.80
2019-01-13T06:07:01.604Z,99080.72
2019-01-13T06:12:05.130Z,99080.88
2019-01-13T06:17:08.590Z,99074.23
2019-01-13T06:22:12.122Z,99084.88
2019-01-13T06:27:15.582Z,99070.07
2019-01-13T06:32:19.044Z,99070.07
2019-01-13T06:37:22.505Z,99058.84
2019-01-13T06:42:25.973Z,99056.52
2019-01-13T06:47:29.441Z,99052.36
2019-01-13T06:52:32.903Z,99058.67
2019-01-13T06:57:36.366Z,99050.53
2019-01-13T07:02:39.826Z,99056.08
2019-01-13T07:07:43.291Z,99054.83
2019-01-13T07:12:46.749Z,99049.15
2019-01-13T07:17:50.216Z,99038.81
2019-01-13T07:22:53.677Z,99040.06
2019-01-13T07:27:57.137Z,99037.28
2019-01-13T07:33:00.597Z,99042.05
2019-01-13T07:38:04.057Z,99028.20
2019-01-13T07:43:07.524Z,99026.64
2019-01-13T07:48:10.986Z,99031.41
2019-01-13T07:53:14.454Z,99026.48
2019-01-13T07:58:17.917Z,99002.15
2019-01-13T08:03:21.386Z,98986.91
2019-01-13T08:08:24.847Z,98984.30
2019-01-13T08:13:28.305Z,98983.36
2019-01-13T08:18:31.772Z,98975.33
2019-01-13T08:23:35.229Z,98978.34
2019-01-13T08:28:38.692Z,98969.19
2019-01-13T08:33:42.150Z,98972.63
2019-01-13T08:38:45.618Z,98950.25
2019-01-13T08:43:49.084Z,98940.77
2019-01-13T08:48:52.720Z,98958.05
2019-01-13T08:53:56.185Z,98921.38
2019-01-13T08:58:59.653Z,98911.25
2019-01-13T09:04:03.122Z,98914.52
2019-01-13T09:09:08.591Z,98897.77
2019-01-13T09:14:12.055Z,98901.21
2019-01-13T09:19:15.524Z,98888.45
2019-01-13T09:24:18.994Z,98880.91
2019-01-13T09:29:22.458Z,98867.23
2019-01-13T09:34:25.924Z,98849.56
2019-01-13T09:39:29.384Z,98851.11
2019-01-13T09:44:32.847Z,98836.68
2019-01-13T09:49:36.321Z,98830.11
2019-01-13T09:54:39.777Z,98820.44
2019-01-13T09:59:43.251Z,98801.53
2019-01-13T10:04:46.714Z,98794.79
2019-01-13T10:09:50.210Z,98774.19
2019-01-13T10:14:53.669Z,98760.98
2019-01-13T10:19:57.133Z,98744.70
2019-01-13T10:25:00.605Z,98726.89
2019-01-13T10:30:07.133Z,98703.20
2019-01-13T10:35:11.264Z,98692.28
2019-01-13T10:40:20.106Z,98686.45
2019-01-13T10:45:23.921Z,98660.56
2019-01-13T10:50:29.033Z,98651.95
2019-01-13T10:55:32.512Z,98633.64
2019-01-13T11:00:36.336Z,98614.98
2019-01-13T11:05:39.815Z,98615.75
2019-01-13T11:10:43.276Z,98600.98
2019-01-13T11:15:46.777Z,98579.12
2019-01-13T11:20:50.253Z,98568.03
2019-01-13T11:25:53.730Z,98560.64
2019-01-13T11:30:57.210Z,98543.86
2019-01-13T11:36:00.694Z,98522.27
2019-01-13T11:41:04.173Z,98505.48
2019-01-13T11:46:07.658Z,98483.30
2019-01-13T11:51:11.133Z,98462.51
2019-01-13T11:56:14.616Z,98448.64
2019-01-13T12:01:18.104Z,98433.55
2019-01-13T12:06:21.590Z,98419.23
2019-01-13T12:11:25.062Z,98410.61
2019-01-13T12:16:28.538Z,98394.11
2019-01-13T12:21:32.016Z,98383.45
2019-01-13T12:26:35.564Z,98374.67
2019-01-13T12:31:39.045Z,98362.34
2019-01-13T12:36:42.523Z,98337.69
2019-01-13T12:41:46.003Z,98320.28
2019-01-13T12:46:49.484Z,98311.97
2019-01-13T12:51:53.038Z,98295.05
2019-01-13T12:56:56.529Z,98284.88
2019-01-13T13:02:00.028Z,98266.73
2019-01-13T13:07:03.573Z,98266.73
2019-01-13T13:12:07.049Z,98250.41
2019-01-13T13:17:10.587Z,98218.25
2019-01-13T13:22:14.020Z,98216.09
2019-01-13T13:27:17.500Z,98198.36
2019-01-13T13:32:20.979Z,98191.61
2019-01-13T13:37:24.465Z,98184.53
2019-01-13T13:42:27.941Z,98169.13
2019-01-13T13:47:31.425Z,98149.91
2019-01-13T13:52:34.904Z,98139.45
2019-01-13T13:57:38.558Z,98129.44
2019-01-13T14:02:42.018Z,98123.59
2019-01-13T14:07:45.551Z,98120.05
2019-01-13T14:12:49.020Z,98116.66
2019-01-13T14:17:52.487Z,98112.51
2019-01-13T14:22:55.950Z,98100.80
2019-01-13T14:27:59.413Z,98090.18
2019-01-13T14:33:02.874Z,98084.79
2019-01-13T14:38:06.337Z,98083.41
2019-01-13T14:43:09.801Z,98070.93
2019-01-13T14:48:13.263Z,98052.92
2019-01-13T14:53:16.722Z,98064.77
2019-01-13T14:58:20.181Z,98058.31
2019-01-13T15:03:23.642Z,98062.62
2019-01-13T15:08:27.108Z,98062.62
2019-01-13T15:13:30.630Z,98066.16
2019-01-13T15:18:34.029Z,98051.53
2019-01-13T15:23:37.495Z,98048.14
2019-01-13T15:28:40.957Z,98032.90
2019-01-13T15:33:44.428Z,98012.11
2019-01-13T15:38:47.890Z,98007.95
2019-01-13T15:43:51.356Z,98004.56
2019-01-13T15:48:55.289Z,98005.95
2019-01-13T15:53:58.753Z,97987.94
2019-01-13T15:59:02.215Z,97986.55
2019-01-13T16:04:05.674Z,97978.23
2019-01-13T16:09:09.680Z,97969.30
2019-01-13T16:14:13.153Z,97955.30
2019-01-13T16:19:16.617Z,97960.22
2019-01-13T16:24:20.087Z,97954.05
2019-01-13T16:29:23.546Z,97938.81
2019-01-13T16:34:27.011Z,97921.41
2019-01-13T16:39:30.471Z,97917.55
2019-01-13T16:44:33.929Z,97898.63
2019-01-13T16:49:37.404Z,97888.16
2019-01-13T16:54:40.869Z,97873.20
2019-01-13T16:59:44.332Z,97864.75
2019-01-13T17:04:47.792Z,97859.35
2019-01-13T17:09:51.263Z,97844.87
2019-01-13T17:14:54.731Z,97829.78
2019-01-13T17:19:58.190Z,97819.31
2019-01-13T17:25:01.715Z,97806.95
2019-01-13T17:30:08.872Z,97781.89
2019-01-13T17:35:12.504Z,97784.66
2019-01-13T17:40:20.873Z,97772.20
2019-01-13T17:45:27.033Z,97766.66
2019-01-13T17:50:30.672Z,97753.55
2019-01-13T17:55:34.201Z,97745.24
2019-01-13T18:00:41.110Z,97751.52
2019-01-13T18:05:44.575Z,97741.20
2019-01-13T18:10:48.037Z,97734.42
2019-01-13T18:15:51.497Z,97714.25
2019-01-13T18:20:54.967Z,97709.33
2019-01-13T18:25:58.429Z,97706.55
2019-01-13T18:31:01.899Z,97707.06
2019-01-13T18:36:05.361Z,97709.84
2019-01-13T18:41:08.825Z,97710.09
2019-01-13T18:46:12.340Z,97707.94
2019-01-13T18:51:15.802Z,97691.94
2019-01-13T18:56:19.264Z,97689.92
2019-01-13T19:01:22.779Z,97683.63
2019-01-13T19:06:26.238Z,97686.27
2019-01-13T19:11:29.715Z,97691.67
2019-01-13T19:16:36.282Z,97713.84
2019-01-13T19:21:39.743Z,97749.88
2019-01-13T19:26:43.207Z,97768.51
2019-01-13T19:31:46.738Z,97754.66
2019-01-13T19:36:50.197Z,97765.27
2019-01-13T19:41:53.678Z,97783.13
2019-01-13T19:46:57.134Z,97791.59
2019-01-13T19:52:00.599Z,97799.91
2019-01-13T19:57:04.067Z,97803.92
2019-01-13T20:02:07.526Z,97812.23
2019-01-13T20:07:11.421Z,97805.45
2019-01-13T20:12:14.888Z,97816.25
2019-01-13T20:17:18.352Z,97814.86
2019-01-13T20:22:21.817Z,97812.70
2019-01-13T20:27:25.284Z,97813.63
2019-01-13T20:32:28.747Z,97817.92
2019-01-13T20:37:32.211Z,97813.47
2019-01-13T20:42:35.674Z,97810.55
2019-01-13T20:47:39.139Z,97810.55
2019-01-13T20:52:42.879Z,97809.02
2019-01-13T20:57:46.339Z,97823.03
2019-01-13T21:02:50.039Z,97825.50
2019-01-13T21:07:54.564Z,97832.58
2019-01-13T21:12:58.026Z,97825.50
2019-01-13T21:18:01.554Z,97815.80
2019-01-13T21:23:05.083Z,97817.81
2019-01-13T21:28:08.764Z,97848.91
2019-01-13T21:33:12.229Z,97844.49
2019-01-13T21:38:15.691Z,97851.42
2019-01-13T21:43:19.152Z,97847.11
2019-01-13T21:48:22.617Z,97845.58
2019-01-13T21:53:26.916Z,97842.81
2019-01-13T21:58:30.378Z,97848.34
2019-01-13T22:03:33.837Z,97850.36
2019-01-13T22:08:37.306Z,97850.06
2019-01-13T22:13:40.779Z,97848.67
2019-01-13T22:18:44.226Z,97842.37
2019-01-13T22:23:47.691Z,97854.22
2019-01-13T22:28:51.177Z,97850.68
2019-01-13T22:33:54.638Z,97854.07
2019-01-13T22:38:58.097Z,97853.80
2019-01-13T22:44:01.557Z,97844.25
2019-01-13T22:49:05.191Z,97849.03
2019-01-13T22:54:08.654Z,97859.97
2019-01-13T22:59:12.119Z,97847.50
2019-01-13T23:04:15.650Z,97854.42
2019-01-13T23:09:19.117Z,97846.73
2019-01-13T23:14:22.579Z,97843.34
2019-01-13T23:19:26.037Z,97854.13
2019-01-13T23:24:29.497Z,97857.98
2019-01-13T23:29:32.957Z,97866.30
2019-01-13T23:34:36.418Z,97870.33
2019-01-13T23:39:39.880Z,97883.27
2019-01-13T23:44:43.344Z,97870.03
2019-01-13T23:49:46.807Z,97880.33
2019-01-13T23:54:50.270Z,97882.95
2019-01-13T23:59:53.730Z,97884.95
